Time;durP1;ratioP1;P1;durP2;ratioP2;P2;SDS_P1;SDS_P2;PMS_P1;PMS_P2;Temp;Humidity;BMP_temperature;BMP_pressure;BME280_temperature;BME280_humidity;BME280_pressure;Samples;Min_cycle;Max_cycle;Signal;HPM_P1;HPM_P2
2022/06/26 00:04:56;;;;;;;7.10;6.40;;;;;;;19.27;67.84;98436.48;220704;1270;22573;-69
2022/06/26 00:10:06;;;;;;;9.70;7.60;;;;;;;19.18;67.76;98437.52;220561;1270;25486;-69
2022/06/26 00:15:17;;;;;;;10.50;8.30;;;;;;;19.09;68.10;98437.70;220192;1268;270462;-69
2022/06/26 00:20:20;;;;;;;8.80;8.00;;;;;;;18.96;68.29;98446.56;220794;1268;22551;-69
2022/06/26 00:25:24;;;;;;;10.00;8.50;;;;;;;18.81;68.41;98454.69;220510;1268;22460;-69
2022/06/26 00:30:27;;;;;;;9.00;8.10;;;;;;;18.66;68.69;98454.75;220795;1270;22570;-68
2022/06/26 00:35:30;;;;;;;8.50;7.70;;;;;;;18.54;69.13;98459.92;220559;1268;26368;-70
2022/06/26 00:40:32;;;;;;;10.70;8.30;;;;;;;18.42;69.40;98456.31;220522;1270;22552;-70
2022/06/26 00:45:35;;;;;;;8.10;7.30;;;;;;;18.33;69.71;98452.89;220590;1270;25332;-70
2022/06/26 00:50:38;;;;;;;9.20;8.30;;;;;;;18.24;69.91;98453.66;221454;1268;25309;-69
2022/06/26 00:55:41;;;;;;;9.80;8.80;;;;;;;18.14;70.14;98458.58;220743;1270;22563;-70
2022/06/26 01:00:44;;;;;;;10.20;9.20;;;;;;;18.03;70.45;98458.52;220357;1270;25871;-70
2022/06/26 01:05:47;;;;;;;9.90;9.10;;;;;;;17.94;70.74;98465.33;220534;1270;22553;-69
2022/06/26 01:10:50;;;;;;;10.30;9.00;;;;;;;17.85;71.01;98469.64;220512;1270;22645;-68
2022/06/26 01:15:53;;;;;;;9.20;8.30;;;;;;;17.77;71.29;98470.71;220299;1270;22532;-70
2022/06/26 01:21:09;;;;;;;9.90;8.80;;;;;;;17.69;71.59;98470.02;221055;1270;25447;-69
2022/06/26 01:32:10;;;;;;;9.40;8.40;;;;;;;17.58;72.18;98471.95;221076;1270;24269;-69
2022/06/26 01:37:12;;;;;;;9.30;8.30;;;;;;;17.49;72.38;98468.75;221068;1268;22521;-69
2022/06/26 01:42:14;;;;;;;10.10;9.10;;;;;;;17.39;72.81;98468.68;220919;1268;22704;-70
2022/06/26 01:47:17;;;;;;;12.40;9.90;;;;;;;17.31;73.38;98466.19;220047;1268;22557;-69
2022/06/26 01:52:20;;;;;;;12.60;10.00;;;;;;;17.23;73.58;98470.46;220740;1270;22866;-70
2022/06/26 01:57:27;;;;;;;11.10;9.60;;;;;;;17.14;73.71;98471.02;220865;1270;25205;-69
2022/06/26 02:02:39;;;;;;;10.90;9.70;;;;;;;17.02;74.02;98472.05;220675;1268;22874;-71
2022/06/26 02:08:03;;;;;;;11.10;10.10;;;;;;;16.93;73.97;98482.19;221224;1270;22807;-69
2022/06/26 02:18:49;;;;;;;11.40;10.20;;;;;;;16.73;74.57;98482.06;220748;1268;22549;-69
2022/06/26 02:23:57;;;;;;;11.30;10.20;;;;;;;16.65;75.01;98481.73;220191;1268;25471;-69
2022/06/26 02:29:19;;;;;;;11.50;10.30;;;;;;;16.62;75.40;98487.94;220229;1268;22538;-69
2022/06/26 02:34:23;;;;;;;13.80;10.70;;;;;;;16.58;75.40;98491.29;220698;1268;22603;-70
2022/06/26 02:39:25;;;;;;;11.70;10.50;;;;;;;16.53;75.65;98494.08;220491;1270;22614;-69
2022/06/26 02:44:29;;;;;;;11.50;10.30;;;;;;;16.51;75.76;98499.31;220624;1270;22550;-70
2022/06/26 02:49:34;;;;;;;11.80;10.60;;;;;;;16.51;75.93;98501.32;220985;1270;22985;-69
2022/06/26 02:54:41;;;;;;;12.10;10.80;;;;;;;16.54;76.13;98497.73;219971;1270;22562;-69
2022/06/26 02:59:52;;;;;;;12.30;11.00;;;;;;;16.59;76.31;98501.84;219982;1268;23057;-69
2022/06/26 03:04:55;;;;;;;12.70;11.40;;;;;;;16.64;76.30;98503.86;220834;1270;24246;-69
2022/06/26 03:09:58;;;;;;;12.50;11.20;;;;;;;16.70;76.48;98509.46;220615;1270;22528;-70
2022/06/26 03:15:02;;;;;;;12.50;11.30;;;;;;;16.78;76.51;98516.52;220245;1270;22750;-69
2022/06/26 03:20:11;;;;;;;14.20;12.70;;;;;;;16.86;76.48;98522.39;220363;1270;22757;-69
2022/06/26 03:25:15;;;;;;;12.80;11.50;;;;;;;17.12;76.84;98527.48;221028;1270;22741;-69
2022/06/26 03:30:18;;;;;;;12.30;11.00;;;;;;;17.51;76.71;98526.27;221029;1268;25368;-69
2022/06/26 03:35:24;;;;;;;11.30;10.10;;;;;;;17.94;76.35;98533.16;221342;1270;24269;-70
2022/06/26 03:40:26;;;;;;;10.50;9.40;;;;;;;18.43;75.68;98531.87;220948;1270;22544;-71
2022/06/26 03:45:29;;;;;;;10.20;9.10;;;;;;;18.95;75.09;98528.34;220398;1270;22579;-72
2022/06/26 03:50:33;;;;;;;9.60;8.60;;;;;;;19.48;74.14;98534.79;220553;1271;22714;-69
2022/06/26 03:55:37;;;;;;;9.60;8.10;;;;;;;19.90;72.70;98539.91;220761;1268;22542;-70
2022/06/26 04:00:42;;;;;;;9.30;7.80;;;;;;;20.21;71.75;98547.31;220527;1268;24036;-70
2022/06/26 04:05:45;;;;;;;9.20;8.20;;;;;;;20.50;70.97;98549.10;220753;1269;23180;-69
2022/06/26 04:11:01;;;;;;;8.20;7.40;;;;;;;20.92;70.83;98549.88;220533;1270;22806;-70
2022/06/26 04:16:25;;;;;;;8.00;7.10;;;;;;;21.21;69.77;98549.11;220582;1270;22742;-68
2022/06/26 04:21:31;;;;;;;8.30;7.30;;;;;;;21.21;68.93;98552.92;220475;1268;22748;-69
2022/06/26 04:26:44;;;;;;;8.50;7.40;;;;;;;21.08;68.63;98563.91;220724;1268;25648;-70
2022/06/26 04:31:54;;;;;;;7.70;7.00;;;;;;;20.83;68.61;98565.36;220435;1270;23243;-70
2022/06/26 04:37:01;;;;;;;8.10;7.30;;;;;;;20.57;68.88;98562.06;221366;1268;25386;-68
2022/06/26 04:42:04;;;;;;;9.00;8.20;;;;;;;20.45;69.43;98566.27;220638;1270;24272;-68
2022/06/26 04:47:11;;;;;;;9.80;8.60;;;;;;;20.40;69.80;98572.23;220315;1270;25461;-70
2022/06/26 04:52:28;;;;;;;9.60;8.60;;;;;;;20.35;70.22;98572.44;220774;1268;25475;-71
2022/06/26 04:57:31;;;;;;;9.70;8.80;;;;;;;20.33;70.33;98572.40;220498;1269;25365;-70
2022/06/26 05:02:35;;;;;;;10.20;9.20;;;;;;;20.34;70.79;98577.55;220921;1268;24316;-69
2022/06/26 05:07:53;;;;;;;9.50;8.60;;;;;;;20.46;70.94;98577.25;220452;1270;24218;-70
2022/06/26 05:12:56;;;;;;;7.70;7.00;;;;;;;20.66;71.02;98575.38;220156;1268;23730;-68
2022/06/26 05:18:35;;;;;;;8.00;6.80;;;;;;;20.88;70.34;98581.78;220374;1268;22573;-70
2022/06/26 05:23:37;;;;;;;7.10;6.40;;;;;;;21.09;69.92;98585.41;220431;1268;25355;-68
2022/06/26 05:28:43;;;;;;;6.10;5.60;;;;;;;21.29;69.29;98589.39;220331;1268;25248;-70
2022/06/26 05:33:46;;;;;;;5.90;5.40;;;;;;;21.40;68.74;98592.98;219859;1270;25430;-68
2022/06/26 05:38:56;;;;;;;6.20;5.60;;;;;;;21.57;68.50;98593.59;220461;1268;25280;-69
2022/06/26 05:44:02;;;;;;;6.30;5.70;;;;;;;21.71;67.79;98599.71;220389;1268;25210;-70
2022/06/26 05:49:06;;;;;;;6.30;5.10;;;;;;;21.85;67.63;98604.65;220664;1268;24253;-68
2022/06/26 05:54:21;;;;;;;6.00;5.30;;;;;;;22.08;67.29;98607.70;220737;1270;25912;-70
2022/06/26 05:59:58;;;;;;;7.60;6.30;;;;;;;22.23;66.43;98611.80;220930;1268;22554;-69
2022/06/26 06:05:27;;;;;;;7.10;5.70;;;;;;;22.29;65.93;98617.96;221057;1270;22799;-70
2022/06/26 06:10:33;;;;;;;7.80;5.90;;;;;;;22.40;65.72;98619.84;220544;1270;24116;-69
2022/06/26 06:15:41;;;;;;;8.40;6.10;;;;;;;22.62;65.61;98620.33;220324;1270;26091;-70
2022/06/26 06:20:45;;;;;;;9.00;6.30;;;;;;;22.83;65.14;98623.20;220618;1270;22622;-69
2022/06/26 06:26:10;;;;;;;8.50;6.30;;;;;;;22.93;64.20;98629.70;221258;1270;25249;-70
2022/06/26 06:31:26;;;;;;;8.10;6.30;;;;;;;22.98;63.65;98632.24;220994;1270;25351;-70
2022/06/26 06:36:29;;;;;;;7.80;6.50;;;;;;;23.12;63.93;98640.20;221125;1270;22561;-69
2022/06/26 06:41:33;;;;;;;9.50;6.90;;;;;;;23.41;63.62;98638.75;220395;1270;22560;-71
2022/06/26 06:46:46;;;;;;;9.20;7.60;;;;;;;23.62;62.89;98642.74;220395;1270;24221;-70
2022/06/26 06:51:50;;;;;;;8.70;7.20;;;;;;;23.86;62.79;98645.52;220498;1268;22589;-70
2022/06/26 06:56:52;;;;;;;10.10;7.40;;;;;;;24.10;62.10;98651.84;220794;1268;25435;-70
2022/06/26 07:01:55;;;;;;;7.50;6.80;;;;;;;24.31;61.50;98646.55;220513;1270;22589;-70
2022/06/26 07:06:59;;;;;;;7.30;6.60;;;;;;;24.43;60.77;98646.77;220638;1270;25500;-69
2022/06/26 07:12:16;;;;;;;7.50;6.80;;;;;;;24.68;60.74;98650.02;220564;1270;22596;-70
2022/06/26 07:17:38;;;;;;;7.30;6.70;;;;;;;25.05;60.39;98649.33;220231;1268;27978;-69
2022/06/26 07:22:43;;;;;;;8.30;7.40;;;;;;;25.22;59.11;98655.45;220397;1270;25252;-71
2022/06/26 07:27:53;;;;;;;6.50;5.80;;;;;;;25.42;58.62;98652.60;220459;1270;26468;-68
2022/06/26 07:32:56;;;;;;;6.50;6.00;;;;;;;25.68;57.88;98656.67;220575;1270;25349;-68
2022/06/26 07:38:03;;;;;;;6.40;5.90;;;;;;;25.90;57.28;98659.17;220573;1270;24460;-70
2022/06/26 07:43:09;;;;;;;7.00;6.40;;;;;;;26.16;57.07;98663.45;220767;1268;25508;-69
2022/06/26 07:48:11;;;;;;;7.50;6.90;;;;;;;26.32;56.46;98666.79;220276;1270;22719;-70
2022/06/26 07:53:14;;;;;;;7.60;6.90;;;;;;;26.51;55.43;98669.46;220744;1268;23265;-69
2022/06/26 07:58:37;;;;;;;7.30;6.70;;;;;;;26.66;55.06;98666.11;220891;1268;24257;-69
2022/06/26 08:03:39;;;;;;;8.30;7.40;;;;;;;26.84;54.54;98670.13;220546;1268;26923;-68
2022/06/26 08:08:41;;;;;;;9.20;7.90;;;;;;;26.97;54.05;98674.84;220275;1270;22556;-70
2022/06/26 08:13:44;;;;;;;6.70;6.20;;;;;;;27.15;53.56;98673.00;220152;1271;22595;-70
2022/06/26 08:18:47;;;;;;;7.30;6.40;;;;;;;27.38;53.61;98667.29;220917;1268;25395;-70
2022/06/26 08:23:49;;;;;;;5.80;5.30;;;;;;;27.66;52.68;98672.96;221007;1270;25345;-69
2022/06/26 08:28:52;;;;;;;7.10;6.00;;;;;;;27.77;51.13;98678.05;220647;1270;23750;-70
2022/06/26 08:33:54;;;;;;;6.70;6.00;;;;;;;27.97;50.23;98677.50;220338;1269;25395;-70
2022/06/26 08:38:59;;;;;;;6.80;5.80;;;;;;;28.20;49.08;98681.06;220507;1268;22522;-70
2022/06/26 08:44:02;;;;;;;7.70;5.60;;;;;;;28.32;47.69;98680.83;220880;1270;22657;-70
2022/06/26 08:49:11;;;;;;;6.10;5.50;;;;;;;28.53;47.48;98676.18;220898;1270;25557;-69
2022/06/26 08:54:14;;;;;;;5.80;5.30;;;;;;;28.78;46.13;98678.34;220640;1268;22560;-69
2022/06/26 08:59:23;;;;;;;5.40;4.90;;;;;;;29.03;44.89;98669.73;220892;1268;22694;-72
2022/06/26 09:04:25;;;;;;;5.80;5.40;;;;;;;29.21;44.12;98673.73;220951;1268;22528;-71
2022/06/26 09:09:28;;;;;;;6.40;5.40;;;;;;;29.38;43.95;98670.04;220903;1268;22776;-69
2022/06/26 09:14:31;;;;;;;5.40;5.00;;;;;;;29.49;42.52;98675.91;220821;1268;22688;-69
2022/06/26 09:19:36;;;;;;;6.00;5.50;;;;;;;29.60;42.54;98669.42;220505;1270;26489;-70
2022/06/26 09:24:40;;;;;;;5.20;4.80;;;;;;;29.78;41.73;98670.95;220397;1270;25455;-70
2022/06/26 09:29:51;;;;;;;4.60;4.20;;;;;;;29.91;40.28;98674.45;221382;1268;23107;-71
2022/06/26 09:34:54;;;;;;;6.40;4.90;;;;;;;30.10;39.63;98681.21;220813;1270;22535;-70
2022/06/26 09:40:04;;;;;;;4.60;4.30;;;;;;;30.22;38.62;98678.70;220430;1270;22535;-70
2022/06/26 09:45:10;;;;;;;5.20;4.80;;;;;;;30.34;38.79;98679.49;221159;1270;22564;-69
2022/06/26 09:50:12;;;;;;;5.30;4.60;;;;;;;30.50;38.55;98675.73;220603;1270;22592;-70
2022/06/26 09:55:17;;;;;;;5.00;4.50;;;;;;;30.59;37.02;98678.16;220410;1270;22576;-70
2022/06/26 10:06:27;;;;;;;4.90;4.30;;;;;;;30.62;36.30;98676.60;220598;1270;25361;-70
2022/06/26 10:11:32;;;;;;;4.80;4.40;;;;;;;30.75;36.15;98679.33;221081;1270;26382;-70
2022/06/26 10:16:53;;;;;;;4.40;4.10;;;;;;;30.83;35.92;98678.84;221383;1270;25463;-69
2022/06/26 10:22:00;;;;;;;4.80;4.40;;;;;;;31.05;35.82;98677.27;220498;1272;23984;-70
2022/06/26 10:27:03;;;;;;;5.10;4.50;;;;;;;31.13;35.44;98676.28;220313;1270;25322;-69
2022/06/26 10:32:07;;;;;;;4.50;4.10;;;;;;;31.22;35.57;98676.72;220609;1270;24408;-70
2022/06/26 10:37:14;;;;;;;4.90;4.50;;;;;;;31.36;34.90;98674.01;220744;1271;22661;-69
2022/06/26 10:48:04;;;;;;;4.90;4.40;;;;;;;31.73;34.41;98671.16;220927;1270;25521;-70
2022/06/26 10:53:24;;;;;;;5.00;4.50;;;;;;;31.79;34.20;98668.55;220991;1271;23767;-70
2022/06/26 10:58:30;;;;;;;6.10;4.30;;;;;;;31.75;34.11;98670.48;221058;1271;22625;-71
2022/06/26 11:03:32;;;;;;;4.10;3.80;;;;;;;31.85;34.20;98668.49;220512;1271;24305;-71
2022/06/26 11:08:45;;;;;;;6.60;5.90;;;;;;;31.98;33.92;98670.04;221099;1271;25395;-70
2022/06/26 11:13:59;;;;;;;5.30;4.90;;;;;;;32.13;34.06;98664.36;221202;1272;24223;-70
2022/06/26 11:19:04;;;;;;;7.10;6.40;;;;;;;32.26;33.55;98664.11;220216;1271;22614;-69
2022/06/26 11:24:06;;;;;;;5.00;4.60;;;;;;;32.40;33.22;98663.88;220558;1271;22540;-71
2022/06/26 11:29:09;;;;;;;5.00;4.50;;;;;;;32.39;32.56;98659.59;220943;1271;22533;-72
2022/06/26 11:34:14;;;;;;;4.80;4.30;;;;;;;32.42;32.38;98657.88;220805;1271;22531;-69
2022/06/26 11:39:17;;;;;;;4.70;4.30;;;;;;;32.45;32.26;98654.67;221054;1270;22558;-70
2022/06/26 11:44:20;;;;;;;5.20;4.60;;;;;;;32.48;31.87;98653.64;220769;1272;22698;-71
2022/06/26 11:49:39;;;;;;;4.50;4.20;;;;;;;32.50;31.98;98654.87;219960;1271;22574;-70
2022/06/26 11:55:02;;;;;;;5.10;4.70;;;;;;;32.52;32.03;98661.52;221046;1270;22554;-70
2022/06/26 12:00:21;;;;;;;5.00;4.50;;;;;;;32.42;31.80;98654.86;220688;1272;24257;-69
2022/06/26 12:05:27;;;;;;;4.40;4.00;;;;;;;32.29;31.76;98655.77;220503;1270;24202;-70
2022/06/26 12:10:36;;;;;;;4.90;4.50;;;;;;;32.30;32.00;98650.86;220864;1271;22569;-70
2022/06/26 12:15:38;;;;;;;4.60;4.20;;;;;;;32.32;31.89;98644.45;219875;1271;320048;-70
2022/06/26 12:20:53;;;;;;;4.80;4.40;;;;;;;32.43;31.62;98652.45;220436;1271;23016;-70
2022/06/26 12:26:08;;;;;;;5.10;4.30;;;;;;;32.50;31.55;98647.80;221148;1270;25328;-70
2022/06/26 12:31:11;;;;;;;;;;;;;;;32.67;31.62;98651.95;220830;1271;24278;-70
2022/06/26 12:36:19;;;;;;;4.50;4.10;;;;;;;32.61;31.23;98651.85;220463;1272;22620;-70
2022/06/26 12:41:22;;;;;;;5.00;4.50;;;;;;;32.57;30.71;98640.88;220348;1271;22543;-70
2022/06/26 12:46:25;;;;;;;4.40;4.10;;;;;;;32.55;31.53;98635.14;220310;1271;22657;-70
2022/06/26 12:51:28;;;;;;;4.90;4.50;;;;;;;32.63;31.06;98640.46;220365;1271;22543;-70
2022/06/26 12:56:30;;;;;;;4.60;4.30;;;;;;;32.60;30.98;98636.52;220441;1271;23159;-69
2022/06/26 13:01:32;;;;;;;4.80;4.50;;;;;;;32.56;31.21;98636.54;220688;1272;23792;-69
2022/06/26 13:06:38;;;;;;;4.80;4.40;;;;;;;32.54;31.29;98628.99;220740;1271;24273;-70
2022/06/26 13:11:42;;;;;;;5.00;4.50;;;;;;;32.55;30.89;98622.30;221114;1273;26718;-70
2022/06/26 13:16:44;;;;;;;5.00;4.60;;;;;;;32.56;31.15;98621.96;221118;1271;22691;-70
2022/06/26 13:21:53;;;;;;;4.80;4.40;;;;;;;32.58;31.21;98625.79;220373;1271;22553;-69
2022/06/26 13:26:56;;;;;;;4.90;4.20;;;;;;;32.65;31.34;98620.04;220467;1271;22588;-70
2022/06/26 13:31:59;;;;;;;4.70;4.40;;;;;;;32.61;30.83;98627.45;220513;1271;22569;-69
2022/06/26 13:37:02;;;;;;;5.50;4.50;;;;;;;32.55;31.16;98626.35;220533;1273;22549;-71
2022/06/26 13:42:05;;;;;;;5.10;4.50;;;;;;;32.63;31.31;98619.01;220563;1271;22540;-70
2022/06/26 13:47:07;;;;;;;4.60;4.30;;;;;;;32.67;30.85;98617.55;221045;1272;22543;-70
2022/06/26 13:52:10;;;;;;;4.80;4.40;;;;;;;32.75;30.78;98611.70;220619;1272;25399;-69
2022/06/26 13:57:12;;;;;;;4.50;4.20;;;;;;;32.80;30.66;98615.98;220261;1271;22632;-69
2022/06/26 14:02:17;;;;;;;5.00;4.60;;;;;;;32.79;30.34;98613.38;220330;1273;26367;-70
2022/06/26 14:07:19;;;;;;;4.90;4.50;;;;;;;32.85;30.47;98613.13;220417;1271;22600;-70
2022/06/26 14:12:22;;;;;;;4.30;4.00;;;;;;;32.85;29.61;98617.55;220295;1271;22534;-70
2022/06/26 14:17:24;;;;;;;4.40;3.90;;;;;;;32.84;29.78;98607.77;220081;1272;25481;-71
2022/06/26 14:27:47;;;;;;;3.60;3.30;;;;;;;33.01;29.01;98609.61;220906;1271;22543;-69
2022/06/26 14:32:50;;;;;;;4.60;4.00;;;;;;;33.02;28.50;98615.37;220213;1271;22608;-69
2022/06/26 14:37:52;;;;;;;5.00;4.60;;;;;;;33.09;28.71;98615.70;220354;1272;22559;-70
2022/06/26 14:42:55;;;;;;;3.90;3.70;;;;;;;33.17;28.51;98613.45;220382;1272;22567;-70
2022/06/26 14:47:57;;;;;;;3.90;3.60;;;;;;;33.24;28.67;98611.66;220433;1272;22541;-71
2022/06/26 14:52:59;;;;;;;4.50;4.00;;;;;;;33.20;28.11;98607.50;220438;1271;22649;-70
2022/06/26 14:58:02;;;;;;;4.40;4.10;;;;;;;33.17;28.35;98605.91;220293;1271;24222;-70
2022/06/26 15:03:04;;;;;;;4.50;4.10;;;;;;;33.28;28.70;98612.48;220878;1272;22553;-70
2022/06/26 15:08:07;;;;;;;4.90;4.50;;;;;;;33.40;28.59;98610.27;221006;1272;23428;-70
2022/06/26 15:13:09;;;;;;;5.10;4.60;;;;;;;33.60;28.75;98608.94;221061;1271;22650;-70
2022/06/26 15:18:11;;;;;;;4.50;4.10;;;;;;;33.85;28.61;98609.55;221010;1269;23373;-70
2022/06/26 15:23:14;;;;;;;7.80;4.40;;;;;;;33.98;28.53;98614.17;220494;1272;26450;-69
2022/06/26 15:28:17;;;;;;;4.20;3.80;;;;;;;33.97;27.96;98609.54;220572;1271;22648;-70
2022/06/26 15:33:19;;;;;;;5.60;5.00;;;;;;;33.85;28.09;98608.19;221027;1270;22543;-70
2022/06/26 15:38:23;;;;;;;4.50;4.10;;;;;;;33.80;28.21;98605.67;220905;1271;22587;-69
2022/06/26 15:43:25;;;;;;;4.50;4.10;;;;;;;33.74;28.53;98607.69;220523;1271;26578;-70
2022/06/26 15:48:31;;;;;;;5.00;4.50;;;;;;;33.64;28.98;98611.28;220237;1271;23969;-70
2022/06/26 15:53:47;;;;;;;5.40;4.90;;;;;;;33.29;29.07;98604.91;221045;1271;25383;-70
2022/06/26 15:58:50;;;;;;;5.80;4.60;;;;;;;33.08;29.48;98608.98;221063;1272;26686;-69
2022/06/26 16:03:52;;;;;;;4.60;4.00;;;;;;;33.01;29.85;98606.11;220259;1271;25262;-71
2022/06/26 16:09:09;;;;;;;4.70;4.30;;;;;;;32.88;30.32;98602.33;220295;1270;22564;-70
2022/06/26 16:14:25;;;;;;;4.70;4.20;;;;;;;32.55;30.39;98600.92;219742;1270;25264;-70
2022/06/26 16:19:28;;;;;;;4.90;3.90;;;;;;;32.46;31.02;98600.08;220199;1270;24303;-69
2022/06/26 16:29:55;;;;;;;4.80;4.20;;;;;;;32.37;30.78;98600.75;220984;1271;22539;-71
2022/06/26 16:34:58;;;;;;;4.10;3.80;;;;;;;32.29;31.44;98603.43;220376;1271;22534;-69
2022/06/26 16:40:05;;;;;;;4.90;4.30;;;;;;;32.17;32.12;98599.73;221060;1271;22705;-69
2022/06/26 16:45:08;;;;;;;4.70;4.00;;;;;;;32.00;32.25;98602.08;220270;1270;22577;-68
2022/06/26 16:50:11;;;;;;;4.10;3.70;;;;;;;31.79;32.58;98605.58;220221;1270;22692;-71
2022/06/26 16:55:13;;;;;;;7.00;6.30;;;;;;;31.49;32.78;98603.41;220252;1272;22664;-70
2022/06/26 17:00:16;;;;;;;5.00;3.80;;;;;;;31.19;32.94;98600.36;220187;1271;22551;-69
2022/06/26 17:05:19;;;;;;;4.10;3.70;;;;;;;30.87;33.43;98601.17;220392;1270;22563;-71
2022/06/26 17:10:21;;;;;;;4.60;4.00;;;;;;;30.63;33.75;98600.28;221050;1271;22590;-70
2022/06/26 17:15:27;;;;;;;4.00;3.70;;;;;;;30.61;33.45;98604.98;220359;1271;22797;-70
2022/06/26 17:20:35;;;;;;;5.40;3.90;;;;;;;30.59;33.48;98602.02;220039;1272;25312;-70
2022/06/26 17:25:40;;;;;;;5.60;3.70;;;;;;;30.40;33.69;98606.58;220457;1270;25447;-71
2022/06/26 17:30:42;;;;;;;5.30;4.00;;;;;;;30.75;34.23;98601.27;220635;1270;22580;-72
2022/06/26 17:35:45;;;;;;;8.00;4.60;;;;;;;31.91;33.94;98605.32;220549;1270;22550;-73
2022/06/26 17:41:00;;;;;;;4.10;3.80;;;;;;;32.11;33.01;98608.42;220696;1270;24329;-69
2022/06/26 17:46:11;;;;;;;3.90;3.60;;;;;;;31.62;32.86;98609.48;221271;1270;22545;-70
2022/06/26 17:51:13;;;;;;;3.90;3.50;;;;;;;30.99;33.37;98609.82;221136;1271;22717;-69
2022/06/26 17:56:16;;;;;;;3.80;3.50;;;;;;;30.36;34.02;98613.38;220580;1270;25356;-70
2022/06/26 18:01:18;;;;;;;5.10;4.00;;;;;;;29.79;34.87;98614.39;220329;1272;22535;-70
2022/06/26 18:06:21;;;;;;;4.00;3.40;;;;;;;29.28;35.34;98614.98;220348;1270;22710;-69
2022/06/26 18:11:23;;;;;;;4.40;3.90;;;;;;;28.87;35.95;98617.19;221220;1268;24899;-69
2022/06/26 18:16:25;;;;;;;5.10;4.70;;;;;;;28.52;36.70;98615.13;220306;1270;24238;-70
2022/06/26 18:21:41;;;;;;;4.00;3.70;;;;;;;28.23;37.11;98620.83;220786;1270;25323;-69
2022/06/26 18:27:19;;;;;;;4.50;4.10;;;;;;;27.95;37.75;98626.14;220247;1271;22582;-69
2022/06/26 18:32:32;;;;;;;4.10;3.70;;;;;;;27.72;37.95;98632.83;220540;1268;22643;-70
2022/06/26 18:37:35;;;;;;;6.00;3.90;;;;;;;27.51;38.32;98633.08;220939;1268;22547;-70
2022/06/26 18:42:40;;;;;;;4.70;4.30;;;;;;;27.33;38.21;98632.27;220837;1268;22678;-70
2022/06/26 18:47:44;;;;;;;5.30;4.80;;;;;;;27.13;38.29;98634.77;220670;1270;22546;-69
2022/06/26 18:52:46;;;;;;;5.10;4.60;;;;;;;26.93;38.48;98642.98;220462;1268;22559;-70
2022/06/26 18:57:49;;;;;;;5.60;4.40;;;;;;;26.73;39.00;98650.54;220513;1270;23687;-68
2022/06/26 19:02:51;;;;;;;4.60;4.20;;;;;;;26.51;39.25;98659.17;220252;1270;22702;-70
2022/06/26 19:07:55;;;;;;;4.70;4.30;;;;;;;26.27;39.56;98661.30;220327;1270;22533;-70
2022/06/26 19:18:19;;;;;;;5.40;4.60;;;;;;;25.78;40.35;98666.08;220494;1270;23855;-68
2022/06/26 19:23:22;;;;;;;4.80;4.30;;;;;;;25.57;40.72;98670.71;220384;1270;22728;-70
2022/06/26 19:28:24;;;;;;;5.50;4.40;;;;;;;25.35;41.29;98671.71;220731;1270;22946;-70
2022/06/26 19:33:27;;;;;;;6.20;4.50;;;;;;;25.16;41.72;98675.73;220758;1270;22597;-70
2022/06/26 19:38:30;;;;;;;5.50;4.50;;;;;;;24.94;42.05;98684.06;220823;1270;22578;-70
2022/06/26 19:43:36;;;;;;;4.60;4.20;;;;;;;24.75;42.38;98686.59;220570;1271;22553;-70
2022/06/26 19:48:40;;;;;;;12.10;7.30;;;;;;;24.57;42.90;98691.82;220633;1270;22721;-69
2022/06/26 19:53:43;;;;;;;8.50;5.00;;;;;;;24.38;43.37;98701.88;220232;1270;22576;-70
2022/06/26 19:58:51;;;;;;;5.10;4.60;;;;;;;24.19;43.65;98702.48;220304;1270;24260;-70
2022/06/26 20:04:02;;;;;;;4.20;3.90;;;;;;;24.01;44.27;98703.86;220324;1270;22539;-69
2022/06/26 20:09:17;;;;;;;7.00;4.60;;;;;;;23.87;44.61;98711.39;220404;1270;23213;-69
2022/06/26 20:14:23;;;;;;;5.60;4.40;;;;;;;23.74;44.98;98710.34;220208;1270;22579;-68
2022/06/26 20:19:25;;;;;;;5.20;4.70;;;;;;;23.62;45.23;98713.30;220618;1270;22539;-69
2022/06/26 20:24:37;;;;;;;7.80;4.70;;;;;;;23.51;45.60;98714.98;220847;1270;22681;-70
2022/06/26 20:29:40;;;;;;;5.00;4.40;;;;;;;23.37;46.09;98713.21;220702;1270;22574;-70
2022/06/26 20:34:42;;;;;;;6.90;4.70;;;;;;;23.21;46.43;98713.69;220543;1270;22560;-71
2022/06/26 20:39:45;;;;;;;6.70;4.60;;;;;;;23.06;46.88;98715.77;220687;1270;24281;-70
2022/06/26 20:44:47;;;;;;;6.50;4.90;;;;;;;22.93;47.18;98718.81;220079;1270;22536;-69
2022/06/26 20:49:50;;;;;;;5.20;4.50;;;;;;;22.81;47.61;98721.86;220172;1270;22547;-69
2022/06/26 20:54:52;;;;;;;6.20;4.40;;;;;;;22.67;48.04;98720.30;219925;1270;23657;-71
2022/06/26 20:59:54;;;;;;;5.20;4.70;;;;;;;22.57;48.43;98722.43;221020;1270;24409;-69
2022/06/26 21:04:56;;;;;;;5.20;4.10;;;;;;;22.47;48.60;98724.33;220395;1270;22933;-69
2022/06/26 21:10:08;;;;;;;5.70;5.20;;;;;;;22.37;48.88;98721.61;220522;1270;22678;-71
2022/06/26 21:15:10;;;;;;;5.30;4.30;;;;;;;22.27;49.16;98719.74;220623;1270;22550;-69
2022/06/26 21:20:13;;;;;;;132.10;108.30;;;;;;;22.21;49.31;98725.96;220058;1271;22589;-69
2022/06/26 21:25:15;;;;;;;29.40;23.20;;;;;;;22.16;49.69;98726.52;220520;1270;22691;-71
2022/06/26 21:30:19;;;;;;;11.80;8.90;;;;;;;22.13;49.88;98721.09;220246;1270;22547;-70
2022/06/26 21:35:24;;;;;;;7.70;5.60;;;;;;;22.12;49.84;98721.78;221426;1270;22548;-70
2022/06/26 21:40:27;;;;;;;4.80;4.30;;;;;;;22.09;50.04;98722.98;221081;1270;22596;-70
2022/06/26 21:45:30;;;;;;;4.60;4.10;;;;;;;22.06;50.00;98719.89;220750;1270;24479;-69
2022/06/26 21:50:33;;;;;;;6.00;4.10;;;;;;;22.01;50.12;98715.69;220662;1270;25400;-70
2022/06/26 21:55:36;;;;;;;4.20;3.80;;;;;;;21.96;50.43;98709.23;220389;1270;24468;-70
2022/06/26 22:00:38;;;;;;;4.00;3.60;;;;;;;21.91;50.65;98711.41;220127;1270;24327;-69
2022/06/26 22:05:42;;;;;;;5.20;3.80;;;;;;;21.86;50.92;98712.89;220629;1268;24231;-69
2022/06/26 22:10:50;;;;;;;4.30;4.00;;;;;;;21.83;50.90;98713.00;220233;1270;22626;-71
2022/06/26 22:15:56;;;;;;;4.60;4.00;;;;;;;21.75;51.05;98707.89;220369;1270;23627;-70
2022/06/26 22:20:59;;;;;;;6.30;4.30;;;;;;;21.65;51.34;98708.42;220581;1270;22716;-70
2022/06/26 22:32:06;;;;;;;4.60;3.80;;;;;;;21.53;51.86;98704.02;220177;1270;24147;-70
2022/06/26 22:37:08;;;;;;;6.30;4.20;;;;;;;21.49;51.98;98704.40;220549;1270;25857;-70
2022/06/26 22:42:11;;;;;;;4.20;3.90;;;;;;;21.44;52.09;98705.95;220741;1270;25561;-69
2022/06/26 22:47:13;;;;;;;4.20;3.50;;;;;;;21.36;52.18;98701.13;220628;1270;22574;-70
2022/06/26 22:52:16;;;;;;;5.50;3.60;;;;;;;21.26;52.50;98704.61;221219;1269;24221;-70
2022/06/26 22:57:21;;;;;;;4.50;3.50;;;;;;;21.14;52.80;98705.25;220736;1270;26084;-68
2022/06/26 23:02:25;;;;;;;5.30;3.50;;;;;;;21.02;52.96;98702.14;220298;1270;22529;-70
2022/06/26 23:07:27;;;;;;;3.70;3.40;;;;;;;20.93;53.12;98702.14;220371;1270;25327;-69
2022/06/26 23:12:30;;;;;;;4.50;3.40;;;;;;;20.84;53.33;98703.19;220220;1269;23958;-69
2022/06/26 23:17:33;;;;;;;5.30;3.70;;;;;;;20.73;53.42;98702.66;220523;1270;22554;-70
2022/06/26 23:22:36;;;;;;;4.50;3.40;;;;;;;20.61;53.50;98701.86;219965;1270;25256;-69
2022/06/26 23:27:39;;;;;;;3.80;3.50;;;;;;;20.51;53.74;98700.30;220634;1270;22716;-69
2022/06/26 23:32:42;;;;;;;4.40;3.40;;;;;;;20.42;53.97;98699.03;220538;1270;22556;-70
2022/06/26 23:37:47;;;;;;;4.30;3.70;;;;;;;20.33;54.14;98696.68;220203;1270;23264;-70
2022/06/26 23:42:49;;;;;;;4.30;3.20;;;;;;;20.26;54.36;98694.19;220332;1268;22545;-69
2022/06/26 23:47:56;;;;;;;4.60;3.30;;;;;;;20.19;54.70;98689.23;220551;1270;24302;-69
2022/06/26 23:52:59;;;;;;;4.40;3.50;;;;;;;20.13;54.94;98690.58;220422;1270;25095;-70
2022/06/26 23:58:06;;;;;;;4.40;3.30;;;;;;;20.07;55.15;98688.63;220264;1270;24335;-70
